createdAt,value
2019-03-27T00:01:05.346Z,66.15
2019-03-27T00:06:12.394Z,61.90
2019-03-27T00:11:19.845Z,60.95
2019-03-27T00:16:27.397Z,69.58
2019-03-27T00:21:36.143Z,84.20
2019-03-27T00:26:43.211Z,68.57
2019-03-27T00:31:50.033Z,71.33
2019-03-27T00:36:56.950Z,63.68
2019-03-27T00:42:04.197Z,57.40
2019-03-27T00:47:11.239Z,56.37
2019-03-27T00:52:18.234Z,57.40
2019-03-27T00:57:26.172Z,56.02
2019-03-27T01:02:34.379Z,54.55
2019-03-27T01:07:41.531Z,53.08
2019-03-27T01:12:49.269Z,55.30
2019-03-27T01:17:56.752Z,54.65
2019-03-27T01:23:05.086Z,56.50
2019-03-27T01:28:21.254Z,57.35
2019-03-27T01:33:32.522Z,56.53
2019-03-27T01:38:40.429Z,56.13
2019-03-27T01:43:48.113Z,52.40
2019-03-27T01:48:55.146Z,61.65
2019-03-27T01:54:06.072Z,63.73
2019-03-27T01:59:13.145Z,50.12
2019-03-27T02:04:20.503Z,49.70
2019-03-27T02:09:30.020Z,50.63
2019-03-27T02:14:38.760Z,50.98
2019-03-27T02:19:46.756Z,51.00
2019-03-27T02:24:55.014Z,53.17
2019-03-27T02:30:03.124Z,48.63
2019-03-27T02:35:11.652Z,48.17
2019-03-27T02:40:18.704Z,48.83
2019-03-27T02:45:26.634Z,45.65
2019-03-27T02:50:35.804Z,44.58
2019-03-27T02:55:44.462Z,41.02
2019-03-27T03:00:52.609Z,38.45
2019-03-27T03:06:02.172Z,36.68
2019-03-27T03:11:14.172Z,37.23
2019-03-27T03:16:22.592Z,33.10
2019-03-27T03:21:33.817Z,34.23
2019-03-27T03:26:41.613Z,33.15
2019-03-27T03:31:48.624Z,32.85
2019-03-27T03:36:57.403Z,31.17
2019-03-27T03:42:06.526Z,29.85
2019-03-27T03:47:15.269Z,31.25
2019-03-27T03:52:24.560Z,29.27
2019-03-27T03:57:33.044Z,29.17
2019-03-27T04:02:40.633Z,26.42
2019-03-27T04:07:48.550Z,24.95
2019-03-27T04:12:56.068Z,25.48
2019-03-27T04:18:04.327Z,24.55
2019-03-27T04:23:11.401Z,23.15
2019-03-27T04:28:19.891Z,23.20
2019-03-27T04:38:43.701Z,23.73
2019-03-27T04:43:52.099Z,21.23
2019-03-27T04:49:01.128Z,21.12
2019-03-27T04:59:19.522Z,23.45
2019-03-27T05:04:27.035Z,23.55
2019-03-27T05:09:45.337Z,24.37
2019-03-27T05:14:53.255Z,22.77
2019-03-27T05:20:20.952Z,23.62
2019-03-27T05:25:29.692Z,22.93
2019-03-27T05:30:38.177Z,21.77
2019-03-27T05:35:45.231Z,22.00
2019-03-27T05:40:53.233Z,21.90
2019-03-27T05:46:00.700Z,22.60
2019-03-27T05:51:09.191Z,22.10
2019-03-27T05:56:16.639Z,21.42
2019-03-27T06:01:24.311Z,22.42
2019-03-27T06:06:31.129Z,21.35
2019-03-27T06:11:39.525Z,21.52
2019-03-27T06:16:47.427Z,21.42
2019-03-27T06:21:55.423Z,21.77
2019-03-27T06:27:03.366Z,22.85
2019-03-27T06:32:11.469Z,21.60
2019-03-27T06:37:18.678Z,21.73
2019-03-27T06:42:26.929Z,22.10
2019-03-27T06:47:34.728Z,22.75
2019-03-27T06:52:41.836Z,21.57
2019-03-27T06:57:48.808Z,22.27
2019-03-27T07:02:55.832Z,22.25
2019-03-27T07:08:03.438Z,22.80
2019-03-27T07:13:10.529Z,23.18
2019-03-27T07:18:18.551Z,22.07
2019-03-27T07:23:25.510Z,23.15
2019-03-27T07:28:32.877Z,22.67
2019-03-27T07:33:41.510Z,21.70
2019-03-27T07:38:51.403Z,23.42
2019-03-27T07:49:05.238Z,22.58
2019-03-27T07:54:13.057Z,22.95
2019-03-27T07:59:20.177Z,21.60
2019-03-27T08:04:27.394Z,22.52
2019-03-27T08:09:34.353Z,22.58
2019-03-27T08:14:42.696Z,21.62
2019-03-27T08:19:49.583Z,22.37
2019-03-27T08:24:56.465Z,21.80
2019-03-27T08:30:04.565Z,21.35
2019-03-27T08:35:11.988Z,22.50
2019-03-27T08:40:19.022Z,21.55
2019-03-27T08:45:26.906Z,21.33
2019-03-27T08:50:37.096Z,22.77
2019-03-27T08:55:44.179Z,22.05
2019-03-27T09:00:53.704Z,22.55
2019-03-27T09:06:00.761Z,22.00
2019-03-27T09:11:08.508Z,23.00
2019-03-27T09:16:15.561Z,23.00
2019-03-27T09:21:23.324Z,21.95
2019-03-27T09:26:30.893Z,21.45
2019-03-27T09:31:44.578Z,21.77
2019-03-27T09:36:47.906Z,22.58
2019-03-27T09:41:55.689Z,20.97
2019-03-27T09:47:20.548Z,23.57
2019-03-27T09:52:29.072Z,24.27
2019-03-27T09:57:36.619Z,24.15
2019-03-27T10:02:44.030Z,23.38
2019-03-27T10:07:51.757Z,24.57
2019-03-27T10:12:58.655Z,35.98
2019-03-27T10:18:06.269Z,31.17
2019-03-27T10:23:13.038Z,27.70
2019-03-27T10:28:20.484Z,27.70
2019-03-27T10:33:27.783Z,25.60
2019-03-27T10:38:35.035Z,23.05
2019-03-27T10:43:42.965Z,22.95
2019-03-27T10:48:52.954Z,24.15
2019-03-27T10:53:59.446Z,25.15
2019-03-27T10:59:06.482Z,27.30
2019-03-27T11:04:14.180Z,25.45
2019-03-27T11:09:21.851Z,25.77
2019-03-27T11:14:37.888Z,26.87
2019-03-27T11:19:36.991Z,23.22
2019-03-27T11:24:44.442Z,23.15
2019-03-27T11:29:51.824Z,22.73
2019-03-27T11:34:59.742Z,23.73
2019-03-27T11:40:07.803Z,21.17
2019-03-27T11:45:15.592Z,21.00
2019-03-27T11:50:23.808Z,18.10
2019-03-27T11:55:33.791Z,18.60
2019-03-27T12:00:53.980Z,19.50
2019-03-27T12:05:49.976Z,17.80
2019-03-27T12:10:57.119Z,18.05
2019-03-27T12:16:04.399Z,19.42
2019-03-27T12:21:11.376Z,20.23
2019-03-27T12:26:23.417Z,21.05
2019-03-27T12:31:30.457Z,22.17
2019-03-27T12:36:37.720Z,23.38
2019-03-27T12:41:44.526Z,22.60
2019-03-27T12:46:52.048Z,22.13
2019-03-27T12:51:59.214Z,20.23
2019-03-27T12:57:06.466Z,20.30
2019-03-27T13:02:13.769Z,19.57
2019-03-27T13:07:20.859Z,20.43
2019-03-27T13:12:41.958Z,21.05
2019-03-27T13:17:50.498Z,22.37
2019-03-27T13:22:58.749Z,21.90
2019-03-27T13:28:07.307Z,22.52
2019-03-27T13:33:14.504Z,21.77
2019-03-27T13:38:21.543Z,22.58
2019-03-27T13:43:28.698Z,21.87
2019-03-27T13:54:04.682Z,22.87
2019-03-27T13:59:11.847Z,28.75
2019-03-27T14:04:18.956Z,27.58
2019-03-27T14:09:26.200Z,29.52
2019-03-27T14:14:33.524Z,27.22
2019-03-27T14:19:40.706Z,33.10
2019-03-27T14:24:47.892Z,31.73
2019-03-27T14:29:54.935Z,29.32
2019-03-27T14:35:02.075Z,28.90
2019-03-27T14:40:09.943Z,29.15
2019-03-27T14:45:17.590Z,29.48
2019-03-27T14:50:24.767Z,29.87
2019-03-27T14:55:31.887Z,33.95
2019-03-27T15:00:39.590Z,29.27
2019-03-27T15:05:47.190Z,28.73
2019-03-27T15:10:54.668Z,30.52
2019-03-27T15:16:02.425Z,30.57
2019-03-27T15:21:09.650Z,29.72
2019-03-27T15:26:16.638Z,28.85
2019-03-27T15:31:23.808Z,31.82
2019-03-27T15:36:30.994Z,29.98
2019-03-27T15:41:38.063Z,28.38
2019-03-27T15:46:45.647Z,31.97
2019-03-27T15:51:52.888Z,30.90
2019-03-27T15:57:00.047Z,31.65
2019-03-27T16:02:08.584Z,32.50
2019-03-27T16:07:16.130Z,29.98
2019-03-27T16:12:23.356Z,28.65
2019-03-27T16:17:30.540Z,31.82
2019-03-27T16:22:49.934Z,33.00
2019-03-27T16:27:46.467Z,31.48
2019-03-27T16:32:53.717Z,30.45
2019-03-27T16:38:01.970Z,30.48
2019-03-27T16:43:09.264Z,32.03
2019-03-27T16:48:16.575Z,30.25
2019-03-27T16:53:23.657Z,33.13
2019-03-27T16:58:31.018Z,31.40
2019-03-27T17:03:38.519Z,31.80
2019-03-27T17:08:45.471Z,34.35
2019-03-27T17:13:52.868Z,31.75
2019-03-27T17:19:00.478Z,32.78
2019-03-27T17:24:08.041Z,32.45
2019-03-27T17:29:15.246Z,31.75
2019-03-27T17:34:22.389Z,31.65
2019-03-27T17:39:29.614Z,31.60
2019-03-27T17:44:36.679Z,32.08
2019-03-27T17:49:43.815Z,31.97
2019-03-27T17:54:52.418Z,32.17
2019-03-27T17:59:59.754Z,39.50
2019-03-27T18:05:08.849Z,37.08
2019-03-27T18:10:16.571Z,33.55
2019-03-27T18:15:23.849Z,32.93
2019-03-27T18:20:31.569Z,33.98
2019-03-27T18:25:38.901Z,32.73
2019-03-27T18:30:48.955Z,33.67
2019-03-27T18:35:56.176Z,34.83
2019-03-27T18:41:03.297Z,37.50
2019-03-27T18:46:10.603Z,35.30
2019-03-27T18:51:19.094Z,37.20
2019-03-27T18:56:26.589Z,37.03
2019-03-27T19:01:33.675Z,38.83
2019-03-27T19:06:40.822Z,44.98
2019-03-27T19:11:48.074Z,38.30
2019-03-27T19:16:55.375Z,40.83
2019-03-27T19:22:02.979Z,40.78
2019-03-27T19:27:10.368Z,39.18
2019-03-27T19:32:17.446Z,37.93
2019-03-27T19:37:24.662Z,39.90
2019-03-27T19:42:31.903Z,42.35
2019-03-27T19:47:39.098Z,45.95
2019-03-27T19:52:46.196Z,43.78
2019-03-27T19:57:53.500Z,44.85
2019-03-27T20:03:00.829Z,41.42
2019-03-27T20:08:08.631Z,39.23
2019-03-27T20:13:15.763Z,41.15
2019-03-27T20:18:23.325Z,43.05
2019-03-27T20:23:30.316Z,42.98
2019-03-27T20:28:37.452Z,42.03
2019-03-27T20:33:44.402Z,43.52
2019-03-27T20:38:52.640Z,44.45
2019-03-27T20:44:00.176Z,49.15
2019-03-27T20:49:07.334Z,48.13
2019-03-27T20:54:14.856Z,48.40
2019-03-27T20:59:22.436Z,47.73
2019-03-27T21:04:29.849Z,50.08
2019-03-27T21:09:36.971Z,49.60
2019-03-27T21:14:44.498Z,59.10
2019-03-27T21:19:51.598Z,60.12
2019-03-27T21:25:08.590Z,58.90
2019-03-27T21:30:10.529Z,53.95
2019-03-27T21:35:18.464Z,58.78
2019-03-27T21:40:25.520Z,58.05
2019-03-27T21:45:33.239Z,71.00
2019-03-27T21:50:40.444Z,61.23
2019-03-27T21:55:47.566Z,58.55
2019-03-27T22:00:54.806Z,62.67
2019-03-27T22:06:01.800Z,70.20
2019-03-27T22:11:09.083Z,54.08
2019-03-27T22:16:16.563Z,69.70
2019-03-27T22:21:24.904Z,68.15
2019-03-27T22:26:33.861Z,64.20
2019-03-27T22:31:41.036Z,60.70
2019-03-27T22:36:48.665Z,56.08
2019-03-27T22:41:55.640Z,54.03
2019-03-27T22:47:02.966Z,60.23
2019-03-27T22:52:10.020Z,54.58
2019-03-27T22:57:18.385Z,49.42
2019-03-27T23:02:25.461Z,48.30
2019-03-27T23:07:32.671Z,48.92
2019-03-27T23:12:39.606Z,55.25
2019-03-27T23:17:47.195Z,57.08
2019-03-27T23:22:54.966Z,53.10
2019-03-27T23:28:02.559Z,51.55
2019-03-27T23:33:09.392Z,49.23
2019-03-27T23:38:16.930Z,52.70
2019-03-27T23:43:24.597Z,53.45
2019-03-27T23:48:31.886Z,54.93
2019-03-27T23:53:39.226Z,53.92
2019-03-27T23:58:46.341Z,54.65
